Weather History for KEMV - December, 2011

Change the Weather History Date:

Thursday, December 15, 2011

  Actual Average Record
Temperature  
Mean Temperature 54 °F -  
Max Temperature 66 °F 51 °F - (-1)
Min Temperature 41 °F 29 °F - (-1)
Degree Days  
Heating Degree Days 12    
Growing Degree Days 4 (Base 50)    
Moisture  
Dew Point 45 °F    
Average Humidity 71    
Maximum Humidity 93    
Minimum Humidity 52    
Precipitation  
Precipitation 0.00 in - - ()
Sea Level Pressure  
Sea Level Pressure 30.18 in    
Wind  
Wind Speed 6 mph (SSE)    
Max Wind Speed 15 mph    
Max Gust Speed 24 mph    
Visibility 10 miles    
Events      
Averages and records for this station are not official NWS values.
T = Trace of Precipitation, MM = Missing Value Source: NWS Daily Summary

Daily Weather History Graph

Daily Weather History Graph

Search for Another Location

Airport or City:

Trip Planner

Search our weather history database for the weather conditions in past years. The results will help you decide how hot, cold, wet, or windy it might be!

Date:

Astronomy

Dec. 15, 2011 Rise Set
Actual Time 7:14 AM EST 4:55 PM EST
Civil Twilight 6:46 AM EST 5:23 PM EST
Nautical Twilight 6:13 AM EST 5:56 PM EST
Astronomical Twilight 5:42 AM EST 6:27 PM EST
Moon 10:12 PM EST (12/15) 10:36 AM EST (12/15)
Length of Visible Light 10h 37m
Length of Day
9h 40m
Waning Gibbous, 75% of the Moon is Illuminated
Dec 15
Waning Gibbous
Dec 17
Last Quarter
Dec 24
New
Jan 1
First Quarter
Jan 9
Full

Hourly Weather History & Observations

Time (EST) Temp. Windchill Dew Point Humidity Pressure Visibility Wind Dir Wind Speed Gust Speed Precip Events Conditions
12:15 AM 42.8 °F 40.1 °F 35.6 °F 76% 30.34 in 10.0 mi East 4.6 mph - N/A   Unknown
12:35 AM 42.8 °F 39.3 °F 35.6 °F 76% 30.33 in 10.0 mi East 5.8 mph - N/A   Unknown
12:55 AM 42.8 °F 39.3 °F 35.6 °F 76% 30.32 in 10.0 mi ESE 5.8 mph - N/A   Unknown
1:15 AM 42.8 °F 39.3 °F 37.4 °F 81% 30.31 in 10.0 mi ESE 5.8 mph - N/A   Unknown
1:35 AM 42.8 °F 40.1 °F 37.4 °F 81% 30.30 in 10.0 mi ESE 4.6 mph - N/A   Unknown
1:55 AM 42.8 °F 40.1 °F 37.4 °F 81% 30.30 in - ESE 4.6 mph - N/A   Unknown
2:15 AM 42.8 °F 41.1 °F 37.4 °F 81% 30.30 in 10.0 mi ESE 3.5 mph - N/A   Unknown
2:35 AM 42.8 °F 41.1 °F 39.2 °F 87% 30.30 in 10.0 mi ESE 3.5 mph - N/A   Unknown
2:55 AM 42.8 °F - 39.2 °F 87% 30.30 in - Calm Calm - N/A   Unknown
3:15 AM 42.8 °F - 39.2 °F 87% 30.30 in 10.0 mi Calm Calm - N/A   Unknown
3:55 AM 42.8 °F 41.1 °F 39.2 °F 87% 30.30 in 10.0 mi ESE 3.5 mph - N/A   Unknown
4:15 AM 42.8 °F - 39.2 °F 87% 30.29 in 10.0 mi Calm Calm - N/A   Unknown
4:35 AM 41.0 °F - 39.2 °F 93% 30.29 in 10.0 mi Calm Calm - N/A   Unknown
4:55 AM 41.0 °F 39.0 °F 39.2 °F 93% 30.28 in 10.0 mi ESE 3.5 mph - N/A   Unknown
5:15 AM 41.0 °F 39.0 °F 39.2 °F 93% 30.28 in 10.0 mi SE 3.5 mph - N/A   Unknown
5:35 AM 41.0 °F - 37.4 °F 87% 30.28 in 10.0 mi Calm Calm - N/A   Unknown
5:55 AM 41.0 °F - 37.4 °F 87% 30.28 in 10.0 mi Calm Calm - N/A   Unknown
6:15 AM 41.0 °F 39.0 °F 37.4 °F 87% 30.29 in 10.0 mi SSE 3.5 mph - N/A   Unknown
6:35 AM 41.0 °F - 35.6 °F 81% 30.29 in 10.0 mi Calm Calm - N/A   Unknown
7:15 AM 41.0 °F 38.0 °F 35.6 °F 81% 30.28 in 10.0 mi SE 4.6 mph - N/A   Unknown
7:35 AM 41.0 °F 39.0 °F 35.6 °F 81% 30.28 in - SE 3.5 mph - N/A   Unknown
7:55 AM 41.0 °F - 35.6 °F 81% 30.28 in 10.0 mi Calm Calm - N/A   Unknown
8:35 AM 44.6 °F 43.1 °F 37.4 °F 76% 30.28 in 10.0 mi South 3.5 mph - N/A   Unknown
8:55 AM 46.4 °F 43.5 °F 37.4 °F 71% 30.28 in 10.0 mi SSE 5.8 mph - N/A   Unknown
9:15 AM 50.0 °F - 37.4 °F 62% 30.27 in 10.0 mi SSE 5.8 mph - N/A   Unknown
9:55 AM 51.8 °F - 39.2 °F 62% 30.27 in 10.0 mi South 6.9 mph - N/A   Unknown
10:15 AM 53.6 °F - 41.0 °F 62% 30.26 in 10.0 mi South 5.8 mph - N/A   Unknown
10:35 AM 55.4 °F - 42.8 °F 63% 30.25 in 10.0 mi South 8.1 mph - N/A   Unknown
10:55 AM 59.0 °F - 42.8 °F 55% 30.24 in 10.0 mi South 8.1 mph - N/A   Unknown
11:15 AM 60.8 °F - 46.4 °F 59% 30.23 in 10.0 mi SSW 8.1 mph 16.1 mph N/A   Unknown
11:35 AM 60.8 °F - 46.4 °F 59% 30.21 in 10.0 mi South 13.8 mph 19.6 mph N/A   Unknown
11:55 AM 62.6 °F - 46.4 °F 55% 30.20 in 10.0 mi SSW 15.0 mph 20.7 mph N/A   Unknown
12:15 PM 62.6 °F - 46.4 °F 55% 30.18 in 10.0 mi South 9.2 mph 16.1 mph N/A   Unknown
12:35 PM 64.4 °F - 48.2 °F 56% 30.17 in 10.0 mi South 9.2 mph 16.1 mph N/A   Unknown
12:55 PM 64.4 °F - 48.2 °F 56% 30.15 in 10.0 mi South 15.0 mph 20.7 mph N/A   Unknown
1:15 PM 66.2 °F - 50.0 °F 56% 30.13 in 10.0 mi South 10.4 mph - N/A   Unknown
1:35 PM 64.4 °F - 50.0 °F 59% 30.12 in 10.0 mi South 9.2 mph 19.6 mph N/A   Unknown
1:55 PM 66.2 °F - 48.2 °F 52% 30.11 in 10.0 mi South 13.8 mph 24.2 mph N/A   Unknown
2:35 PM 66.2 °F - 48.2 °F 52% 30.10 in 10.0 mi South 15.0 mph 24.2 mph N/A   Unknown
2:55 PM 66.2 °F - 48.2 °F 52% 30.09 in 10.0 mi South 9.2 mph 18.4 mph N/A   Unknown
3:15 PM 66.2 °F - 48.2 °F 52% 30.09 in 10.0 mi South 12.7 mph 19.6 mph N/A   Unknown
3:35 PM 66.2 °F - 50.0 °F 56% 30.09 in 10.0 mi South 13.8 mph 21.9 mph N/A   Unknown
3:55 PM 64.4 °F - 50.0 °F 59% 30.09 in - South 10.4 mph 16.1 mph N/A   Unknown
4:15 PM 64.4 °F - 50.0 °F 59% 30.09 in 10.0 mi South 8.1 mph 16.1 mph N/A   Unknown
4:35 PM 64.4 °F - 50.0 °F 59% 30.09 in 10.0 mi South 9.2 mph - N/A   Unknown
4:55 PM 64.4 °F - 51.8 °F 64% 30.09 in 10.0 mi South 10.4 mph 16.1 mph N/A   Unknown
5:15 PM 62.6 °F - 51.8 °F 68% 30.09 in 10.0 mi South 8.1 mph - N/A   Unknown
5:35 PM 62.6 °F - 51.8 °F 68% 30.09 in - South 9.2 mph - N/A   Unknown
5:55 PM 62.6 °F - 51.8 °F 68% 30.08 in 10.0 mi South 5.8 mph - N/A   Unknown
6:15 PM 60.8 °F - 51.8 °F 72% 30.08 in 10.0 mi South 6.9 mph - N/A   Unknown
6:35 PM 60.8 °F - 51.8 °F 72% 30.07 in 10.0 mi SE 5.8 mph - N/A   Unknown
6:55 PM 60.8 °F - 51.8 °F 72% 30.07 in 10.0 mi South 5.8 mph - N/A   Unknown
7:15 PM 60.8 °F - 51.8 °F 72% 30.05 in 10.0 mi SSE 6.9 mph - N/A   Unknown
7:35 PM 60.8 °F - 51.8 °F 72% 30.07 in 10.0 mi South 4.6 mph - N/A   Unknown
7:55 PM 60.8 °F - 51.8 °F 72% 30.07 in 10.0 mi South 5.8 mph - N/A   Unknown
8:15 PM 60.8 °F - 51.8 °F 72% 30.07 in 10.0 mi South 5.8 mph - N/A   Unknown
8:35 PM 59.0 °F - 51.8 °F 77% 30.06 in 10.0 mi South 5.8 mph - N/A   Unknown
8:55 PM 60.8 °F - 51.8 °F 72% 30.06 in 10.0 mi South 5.8 mph - N/A   Unknown
9:15 PM 59.0 °F - 51.8 °F 77% 30.07 in 10.0 mi South 3.5 mph - N/A   Unknown
9:35 PM 60.8 °F - 51.8 °F 72% 30.07 in 10.0 mi SSW 5.8 mph - N/A   Unknown
9:55 PM 60.8 °F - 51.8 °F 72% 30.07 in 10.0 mi South 8.1 mph - N/A   Unknown
10:35 PM 59.0 °F - 51.8 °F 77% 30.07 in 10.0 mi South 8.1 mph - N/A   Unknown
10:55 PM 60.8 °F - 51.8 °F 72% 30.06 in 10.0 mi South 8.1 mph - N/A   Unknown
11:35 PM 59.0 °F - 51.8 °F 77% 30.05 in 10.0 mi South 6.9 mph - N/A   Unknown
11:55 PM 59.0 °F - 51.8 °F 77% 30.05 in 10.0 mi South 5.8 mph - N/A   Unknown